sensor_id;sensor_type;location;lat;lon;timestamp;P1;durP1;ratioP1;P2;durP2;ratioP2
7365;SDS011;3723;52.220;8.792;2023-09-18T00:09:21;20.20;;;5.00;;
7365;SDS011;3723;52.220;8.792;2023-09-18T00:11:48;12.47;;;4.50;;
7365;SDS011;3723;52.220;8.792;2023-09-18T00:28:04;10.00;;;3.70;;
7365;SDS011;3723;52.220;8.792;2023-09-18T00:46:40;12.10;;;4.27;;
7365;SDS011;3723;52.220;8.792;2023-09-18T00:49:14;14.37;;;4.07;;
7365;SDS011;3723;52.220;8.792;2023-09-18T00:51:56;17.70;;;4.63;;
7365;SDS011;3723;52.220;8.792;2023-09-18T00:54:38;12.13;;;3.60;;
7365;SDS011;3723;52.220;8.792;2023-09-18T00:57:06;13.77;;;3.87;;
7365;SDS011;3723;52.220;8.792;2023-09-18T01:08:41;14.37;;;3.00;;
7365;SDS011;3723;52.220;8.792;2023-09-18T01:15:07;12.07;;;4.17;;
7365;SDS011;3723;52.220;8.792;2023-09-18T01:18:04;15.03;;;3.40;;
7365;SDS011;3723;52.220;8.792;2023-09-18T01:20:31;11.50;;;4.00;;
7365;SDS011;3723;52.220;8.792;2023-09-18T01:23:04;13.33;;;3.70;;
7365;SDS011;3723;52.220;8.792;2023-09-18T01:25:36;12.13;;;3.97;;
7365;SDS011;3723;52.220;8.792;2023-09-18T01:28:03;10.57;;;4.30;;
7365;SDS011;3723;52.220;8.792;2023-09-18T01:30:31;11.83;;;4.23;;
7365;SDS011;3723;52.220;8.792;2023-09-18T01:33:15;12.63;;;4.70;;
7365;SDS011;3723;52.220;8.792;2023-09-18T01:35:49;12.07;;;3.77;;
7365;SDS011;3723;52.220;8.792;2023-09-18T01:38:21;11.50;;;4.40;;
7365;SDS011;3723;52.220;8.792;2023-09-18T01:40:50;10.70;;;3.40;;
7365;SDS011;3723;52.220;8.792;2023-09-18T01:43:18;14.90;;;3.57;;
7365;SDS011;3723;52.220;8.792;2023-09-18T01:45:46;10.00;;;2.80;;
7365;SDS011;3723;52.220;8.792;2023-09-18T01:48:13;12.80;;;5.60;;
7365;SDS011;3723;52.220;8.792;2023-09-18T01:50:44;12.73;;;3.83;;
7365;SDS011;3723;52.220;8.792;2023-09-18T01:53:13;12.70;;;3.30;;
7365;SDS011;3723;52.220;8.792;2023-09-18T01:55:44;9.93;;;3.20;;
7365;SDS011;3723;52.220;8.792;2023-09-18T01:58:51;11.07;;;3.20;;
7365;SDS011;3723;52.220;8.792;2023-09-18T02:01:43;10.97;;;3.00;;
7365;SDS011;3723;52.220;8.792;2023-09-18T02:04:39;13.87;;;3.33;;
7365;SDS011;3723;52.220;8.792;2023-09-18T02:07:25;13.40;;;3.40;;
7365;SDS011;3723;52.220;8.792;2023-09-18T02:09:52;10.70;;;4.13;;
7365;SDS011;3723;52.220;8.792;2023-09-18T02:12:25;14.10;;;4.27;;
7365;SDS011;3723;52.220;8.792;2023-09-18T02:14:55;11.27;;;3.47;;
7365;SDS011;3723;52.220;8.792;2023-09-18T02:17:23;11.23;;;3.50;;
7365;SDS011;3723;52.220;8.792;2023-09-18T02:19:50;9.40;;;3.20;;
7365;SDS011;3723;52.220;8.792;2023-09-18T02:22:33;11.30;;;3.37;;
7365;SDS011;3723;52.220;8.792;2023-09-18T02:25:02;13.03;;;3.30;;
7365;SDS011;3723;52.220;8.792;2023-09-18T02:27:41;11.87;;;3.80;;
7365;SDS011;3723;52.220;8.792;2023-09-18T02:30:11;9.43;;;2.87;;
7365;SDS011;3723;52.220;8.792;2023-09-18T02:32:39;11.00;;;3.77;;
7365;SDS011;3723;52.220;8.792;2023-09-18T02:35:06;12.50;;;3.80;;
7365;SDS011;3723;52.220;8.792;2023-09-18T02:37:49;16.43;;;4.27;;
7365;SDS011;3723;52.220;8.792;2023-09-18T02:40:29;12.87;;;4.23;;
7365;SDS011;3723;52.220;8.792;2023-09-18T02:43:12;12.97;;;3.70;;
7365;SDS011;3723;52.220;8.792;2023-09-18T02:45:42;8.87;;;2.63;;
7365;SDS011;3723;52.220;8.792;2023-09-18T02:48:12;9.67;;;2.87;;
7365;SDS011;3723;52.220;8.792;2023-09-18T02:50:39;12.20;;;3.67;;
7365;SDS011;3723;52.220;8.792;2023-09-18T02:53:17;11.47;;;3.60;;
7365;SDS011;3723;52.220;8.792;2023-09-18T02:56:05;11.67;;;4.03;;
7365;SDS011;3723;52.220;8.792;2023-09-18T02:58:53;10.20;;;2.80;;
7365;SDS011;3723;52.220;8.792;2023-09-18T03:01:23;18.63;;;4.50;;
7365;SDS011;3723;52.220;8.792;2023-09-18T03:03:51;11.53;;;3.90;;
7365;SDS011;3723;52.220;8.792;2023-09-18T03:06:18;10.30;;;3.17;;
7365;SDS011;3723;52.220;8.792;2023-09-18T03:08:54;14.80;;;4.50;;
7365;SDS011;3723;52.220;8.792;2023-09-18T03:11:30;10.10;;;3.00;;
7365;SDS011;3723;52.220;8.792;2023-09-18T03:14:15;11.90;;;3.47;;
7365;SDS011;3723;52.220;8.792;2023-09-18T03:16:50;11.87;;;4.10;;
7365;SDS011;3723;52.220;8.792;2023-09-18T03:19:22;9.83;;;3.47;;
7365;SDS011;3723;52.220;8.792;2023-09-18T03:21:49;12.90;;;3.50;;
7365;SDS011;3723;52.220;8.792;2023-09-18T03:24:16;10.83;;;3.93;;
7365;SDS011;3723;52.220;8.792;2023-09-18T03:26:43;11.20;;;3.80;;
7365;SDS011;3723;52.220;8.792;2023-09-18T03:29:14;11.97;;;3.53;;
7365;SDS011;3723;52.220;8.792;2023-09-18T03:31:41;11.13;;;3.37;;
7365;SDS011;3723;52.220;8.792;2023-09-18T03:34:16;10.13;;;3.50;;
7365;SDS011;3723;52.220;8.792;2023-09-18T03:36:56;11.07;;;2.83;;
7365;SDS011;3723;52.220;8.792;2023-09-18T03:39:26;11.63;;;4.00;;
7365;SDS011;3723;52.220;8.792;2023-09-18T03:41:53;12.17;;;3.80;;
7365;SDS011;3723;52.220;8.792;2023-09-18T03:47:09;14.90;;;3.70;;
7365;SDS011;3723;52.220;8.792;2023-09-18T03:49:35;10.77;;;3.77;;
7365;SDS011;3723;52.220;8.792;2023-09-18T03:52:15;10.20;;;2.90;;
7365;SDS011;3723;52.220;8.792;2023-09-18T03:54:43;9.60;;;2.67;;
7365;SDS011;3723;52.220;8.792;2023-09-18T03:57:12;10.13;;;3.03;;
7365;SDS011;3723;52.220;8.792;2023-09-18T03:59:44;10.53;;;3.67;;
7365;SDS011;3723;52.220;8.792;2023-09-18T04:02:21;10.40;;;3.10;;
7365;SDS011;3723;52.220;8.792;2023-09-18T04:04:54;13.30;;;3.30;;
7365;SDS011;3723;52.220;8.792;2023-09-18T04:07:28;12.53;;;3.37;;
7365;SDS011;3723;52.220;8.792;2023-09-18T04:10:09;12.20;;;3.13;;
7365;SDS011;3723;52.220;8.792;2023-09-18T04:12:45;11.33;;;3.53;;
7365;SDS011;3723;52.220;8.792;2023-09-18T04:18:21;14.43;;;2.97;;
7365;SDS011;3723;52.220;8.792;2023-09-18T04:21:00;9.80;;;2.70;;
7365;SDS011;3723;52.220;8.792;2023-09-18T04:23:28;13.40;;;3.67;;
7365;SDS011;3723;52.220;8.792;2023-09-18T04:25:58;10.17;;;3.03;;
7365;SDS011;3723;52.220;8.792;2023-09-18T04:32:12;9.70;;;2.73;;
7365;SDS011;3723;52.220;8.792;2023-09-18T04:34:39;21.53;;;3.43;;
7365;SDS011;3723;52.220;8.792;2023-09-18T04:37:25;9.50;;;2.90;;
7365;SDS011;3723;52.220;8.792;2023-09-18T04:39:52;10.20;;;3.00;;
7365;SDS011;3723;52.220;8.792;2023-09-18T04:42:24;10.40;;;2.97;;
7365;SDS011;3723;52.220;8.792;2023-09-18T04:48:13;10.97;;;3.50;;
7365;SDS011;3723;52.220;8.792;2023-09-18T04:50:45;9.63;;;2.67;;
7365;SDS011;3723;52.220;8.792;2023-09-18T05:16:07;9.97;;;3.07;;
7365;SDS011;3723;52.220;8.792;2023-09-18T05:21:45;10.47;;;3.30;;
7365;SDS011;3723;52.220;8.792;2023-09-18T05:25:02;9.13;;;2.53;;
7365;SDS011;3723;52.220;8.792;2023-09-18T05:27:31;9.00;;;2.40;;
7365;SDS011;3723;52.220;8.792;2023-09-18T05:29:59;10.30;;;2.73;;
7365;SDS011;3723;52.220;8.792;2023-09-18T05:32:28;10.30;;;3.33;;
7365;SDS011;3723;52.220;8.792;2023-09-18T05:35:01;8.70;;;2.53;;
7365;SDS011;3723;52.220;8.792;2023-09-18T05:37:37;10.93;;;3.10;;
7365;SDS011;3723;52.220;8.792;2023-09-18T05:40:06;9.20;;;2.30;;
7365;SDS011;3723;52.220;8.792;2023-09-18T05:42:42;8.30;;;2.00;;
7365;SDS011;3723;52.220;8.792;2023-09-18T05:45:12;9.80;;;2.87;;
7365;SDS011;3723;52.220;8.792;2023-09-18T05:47:41;8.87;;;2.03;;
7365;SDS011;3723;52.220;8.792;2023-09-18T05:50:09;9.10;;;2.37;;
7365;SDS011;3723;52.220;8.792;2023-09-18T05:52:40;10.93;;;2.37;;
7365;SDS011;3723;52.220;8.792;2023-09-18T05:55:07;9.90;;;2.20;;
7365;SDS011;3723;52.220;8.792;2023-09-18T05:57:35;9.10;;;2.40;;
7365;SDS011;3723;52.220;8.792;2023-09-18T06:00:02;11.60;;;2.70;;
7365;SDS011;3723;52.220;8.792;2023-09-18T06:02:32;9.33;;;2.50;;
7365;SDS011;3723;52.220;8.792;2023-09-18T06:04:59;10.67;;;2.60;;
7365;SDS011;3723;52.220;8.792;2023-09-18T06:07:31;11.47;;;2.63;;
7365;SDS011;3723;52.220;8.792;2023-09-18T06:09:59;11.33;;;2.40;;
7365;SDS011;3723;52.220;8.792;2023-09-18T06:12:26;10.30;;;2.90;;
7365;SDS011;3723;52.220;8.792;2023-09-18T06:14:54;12.33;;;2.70;;
7365;SDS011;3723;52.220;8.792;2023-09-18T06:17:21;9.20;;;2.40;;
7365;SDS011;3723;52.220;8.792;2023-09-18T06:19:51;8.43;;;2.00;;
7365;SDS011;3723;52.220;8.792;2023-09-18T06:22:18;10.33;;;2.50;;
7365;SDS011;3723;52.220;8.792;2023-09-18T06:24:45;9.73;;;2.50;;
7365;SDS011;3723;52.220;8.792;2023-09-18T06:27:12;9.80;;;2.10;;
7365;SDS011;3723;52.220;8.792;2023-09-18T06:29:39;9.27;;;2.10;;
7365;SDS011;3723;52.220;8.792;2023-09-18T06:32:08;10.40;;;1.97;;
7365;SDS011;3723;52.220;8.792;2023-09-18T06:34:40;8.40;;;2.20;;
7365;SDS011;3723;52.220;8.792;2023-09-18T06:37:10;10.40;;;2.60;;
7365;SDS011;3723;52.220;8.792;2023-09-18T06:39:39;10.53;;;2.53;;
7365;SDS011;3723;52.220;8.792;2023-09-18T06:42:06;10.70;;;2.97;;
7365;SDS011;3723;52.220;8.792;2023-09-18T06:44:37;9.00;;;2.40;;
7365;SDS011;3723;52.220;8.792;2023-09-18T06:47:07;9.10;;;2.40;;
7365;SDS011;3723;52.220;8.792;2023-09-18T06:49:35;13.67;;;2.50;;
7365;SDS011;3723;52.220;8.792;2023-09-18T06:52:02;8.83;;;2.20;;
7365;SDS011;3723;52.220;8.792;2023-09-18T06:54:39;8.67;;;1.60;;
7365;SDS011;3723;52.220;8.792;2023-09-18T06:57:09;10.83;;;3.20;;
7365;SDS011;3723;52.220;8.792;2023-09-18T06:59:36;9.63;;;1.90;;
7365;SDS011;3723;52.220;8.792;2023-09-18T07:02:03;8.37;;;2.13;;
7365;SDS011;3723;52.220;8.792;2023-09-18T07:04:39;9.17;;;2.37;;
7365;SDS011;3723;52.220;8.792;2023-09-18T07:07:13;9.40;;;1.97;;
7365;SDS011;3723;52.220;8.792;2023-09-18T07:23:04;10.43;;;1.73;;
7365;SDS011;3723;52.220;8.792;2023-09-18T07:43:37;10.20;;;2.40;;
7365;SDS011;3723;52.220;8.792;2023-09-18T08:36:53;8.63;;;2.07;;
7365;SDS011;3723;52.220;8.792;2023-09-18T08:39:52;9.10;;;1.23;;
7365;SDS011;3723;52.220;8.792;2023-09-18T08:42:44;10.20;;;2.00;;
7365;SDS011;3723;52.220;8.792;2023-09-18T08:45:22;11.27;;;1.83;;
7365;SDS011;3723;52.220;8.792;2023-09-18T08:47:54;12.27;;;1.50;;
7365;SDS011;3723;52.220;8.792;2023-09-18T08:50:26;7.77;;;1.20;;
7365;SDS011;3723;52.220;8.792;2023-09-18T08:53:07;14.10;;;1.70;;
7365;SDS011;3723;52.220;8.792;2023-09-18T08:55:37;9.57;;;1.30;;
7365;SDS011;3723;52.220;8.792;2023-09-18T08:58:12;9.93;;;1.30;;
7365;SDS011;3723;52.220;8.792;2023-09-18T09:00:47;7.40;;;1.30;;
7365;SDS011;3723;52.220;8.792;2023-09-18T09:03:23;8.40;;;1.43;;
7365;SDS011;3723;52.220;8.792;2023-09-18T09:06:03;8.43;;;1.03;;
7365;SDS011;3723;52.220;8.792;2023-09-18T09:08:36;9.13;;;1.27;;
7365;SDS011;3723;52.220;8.792;2023-09-18T09:11:05;13.00;;;1.10;;
7365;SDS011;3723;52.220;8.792;2023-09-18T09:13:35;8.10;;;1.17;;
7365;SDS011;3723;52.220;8.792;2023-09-18T09:16:05;10.23;;;1.00;;
7365;SDS011;3723;52.220;8.792;2023-09-18T09:18:54;8.90;;;1.13;;
7365;SDS011;3723;52.220;8.792;2023-09-18T09:21:21;8.50;;;1.47;;
7365;SDS011;3723;52.220;8.792;2023-09-18T09:23:49;9.53;;;0.90;;
7365;SDS011;3723;52.220;8.792;2023-09-18T09:26:31;9.10;;;1.00;;
7365;SDS011;3723;52.220;8.792;2023-09-18T09:29:14;10.63;;;1.67;;
7365;SDS011;3723;52.220;8.792;2023-09-18T09:31:43;10.00;;;1.10;;
7365;SDS011;3723;52.220;8.792;2023-09-18T09:34:23;8.83;;;1.13;;
7365;SDS011;3723;52.220;8.792;2023-09-18T09:37:05;7.60;;;1.10;;
7365;SDS011;3723;52.220;8.792;2023-09-18T09:39:35;10.07;;;1.43;;
7365;SDS011;3723;52.220;8.792;2023-09-18T09:42:25;6.93;;;1.10;;
7365;SDS011;3723;52.220;8.792;2023-09-18T09:45:01;9.00;;;1.10;;
7365;SDS011;3723;52.220;8.792;2023-09-18T09:47:34;13.47;;;1.40;;
7365;SDS011;3723;52.220;8.792;2023-09-18T09:50:07;8.97;;;1.10;;
7365;SDS011;3723;52.220;8.792;2023-09-18T09:52:42;11.20;;;1.27;;
7365;SDS011;3723;52.220;8.792;2023-09-18T09:55:33;7.80;;;1.00;;
7365;SDS011;3723;52.220;8.792;2023-09-18T09:58:12;11.03;;;1.10;;
7365;SDS011;3723;52.220;8.792;2023-09-18T10:03:55;8.40;;;1.37;;
7365;SDS011;3723;52.220;8.792;2023-09-18T10:07:13;9.63;;;1.17;;
7365;SDS011;3723;52.220;8.792;2023-09-18T10:09:46;9.37;;;1.73;;
7365;SDS011;3723;52.220;8.792;2023-09-18T10:16:06;8.27;;;1.40;;
7365;SDS011;3723;52.220;8.792;2023-09-18T10:18:59;9.60;;;1.07;;
7365;SDS011;3723;52.220;8.792;2023-09-18T10:22:01;9.07;;;1.00;;
7365;SDS011;3723;52.220;8.792;2023-09-18T10:24:37;7.97;;;1.10;;
7365;SDS011;3723;52.220;8.792;2023-09-18T10:27:13;8.90;;;1.10;;
7365;SDS011;3723;52.220;8.792;2023-09-18T10:32:59;8.03;;;1.03;;
7365;SDS011;3723;52.220;8.792;2023-09-18T10:38:41;10.13;;;2.27;;
7365;SDS011;3723;52.220;8.792;2023-09-18T10:42:15;10.90;;;1.43;;
7365;SDS011;3723;52.220;8.792;2023-09-18T10:45:01;8.80;;;1.00;;
7365;SDS011;3723;52.220;8.792;2023-09-18T10:47:30;10.10;;;1.37;;
7365;SDS011;3723;52.220;8.792;2023-09-18T10:50:24;10.03;;;1.20;;
7365;SDS011;3723;52.220;8.792;2023-09-18T10:53:08;9.73;;;1.10;;
7365;SDS011;3723;52.220;8.792;2023-09-18T10:58:46;8.30;;;1.17;;
7365;SDS011;3723;52.220;8.792;2023-09-18T11:01:40;7.83;;;1.23;;
7365;SDS011;3723;52.220;8.792;2023-09-18T11:04:19;10.47;;;1.70;;
7365;SDS011;3723;52.220;8.792;2023-09-18T11:07:07;11.23;;;1.00;;
7365;SDS011;3723;52.220;8.792;2023-09-18T11:09:42;10.63;;;1.23;;
7365;SDS011;3723;52.220;8.792;2023-09-18T11:12:19;9.73;;;1.63;;
7365;SDS011;3723;52.220;8.792;2023-09-18T11:15:09;11.60;;;2.20;;
7365;SDS011;3723;52.220;8.792;2023-09-18T11:18:15;7.80;;;0.90;;
7365;SDS011;3723;52.220;8.792;2023-09-18T11:26:46;7.80;;;1.00;;
7365;SDS011;3723;52.220;8.792;2023-09-18T11:29:23;7.70;;;1.20;;
7365;SDS011;3723;52.220;8.792;2023-09-18T11:32:16;8.53;;;1.13;;
7365;SDS011;3723;52.220;8.792;2023-09-18T11:35:06;6.90;;;0.80;;
7365;SDS011;3723;52.220;8.792;2023-09-18T11:37:36;9.60;;;1.23;;
7365;SDS011;3723;52.220;8.792;2023-09-18T11:45:54;7.60;;;1.40;;
7365;SDS011;3723;52.220;8.792;2023-09-18T11:48:22;7.73;;;1.13;;
7365;SDS011;3723;52.220;8.792;2023-09-18T11:50:53;9.27;;;1.20;;
7365;SDS011;3723;52.220;8.792;2023-09-18T11:53:23;13.80;;;1.00;;
7365;SDS011;3723;52.220;8.792;2023-09-18T11:55:54;8.27;;;0.90;;
7365;SDS011;3723;52.220;8.792;2023-09-18T11:58:21;8.80;;;2.10;;
7365;SDS011;3723;52.220;8.792;2023-09-18T12:00:49;9.10;;;1.20;;
7365;SDS011;3723;52.220;8.792;2023-09-18T12:03:16;14.27;;;1.47;;
7365;SDS011;3723;52.220;8.792;2023-09-18T12:05:50;8.00;;;0.97;;
7365;SDS011;3723;52.220;8.792;2023-09-18T12:08:21;10.07;;;1.63;;
7365;SDS011;3723;52.220;8.792;2023-09-18T12:10:51;7.13;;;0.97;;
7365;SDS011;3723;52.220;8.792;2023-09-18T12:13:20;9.27;;;0.90;;
7365;SDS011;3723;52.220;8.792;2023-09-18T12:15:48;11.93;;;1.00;;
7365;SDS011;3723;52.220;8.792;2023-09-18T12:18:15;7.60;;;0.90;;
7365;SDS011;3723;52.220;8.792;2023-09-18T12:20:50;7.63;;;0.80;;
7365;SDS011;3723;52.220;8.792;2023-09-18T12:23:17;7.10;;;0.80;;
7365;SDS011;3723;52.220;8.792;2023-09-18T12:25:46;8.70;;;0.90;;
7365;SDS011;3723;52.220;8.792;2023-09-18T12:28:21;8.53;;;0.90;;
7365;SDS011;3723;52.220;8.792;2023-09-18T12:31:09;10.50;;;0.87;;
7365;SDS011;3723;52.220;8.792;2023-09-18T12:33:45;8.00;;;1.00;;
7365;SDS011;3723;52.220;8.792;2023-09-18T12:36:18;8.47;;;1.03;;
7365;SDS011;3723;52.220;8.792;2023-09-18T12:38:58;9.03;;;1.47;;
7365;SDS011;3723;52.220;8.792;2023-09-18T12:41:34;8.67;;;1.20;;
7365;SDS011;3723;52.220;8.792;2023-09-18T12:47:01;8.10;;;0.90;;
7365;SDS011;3723;52.220;8.792;2023-09-18T12:49:53;6.73;;;0.90;;
7365;SDS011;3723;52.220;8.792;2023-09-18T12:52:33;9.13;;;1.20;;
7365;SDS011;3723;52.220;8.792;2023-09-18T12:55:07;7.47;;;1.37;;
7365;SDS011;3723;52.220;8.792;2023-09-18T12:57:46;7.83;;;1.10;;
7365;SDS011;3723;52.220;8.792;2023-09-18T13:00:19;7.73;;;0.93;;
7365;SDS011;3723;52.220;8.792;2023-09-18T13:02:48;8.40;;;1.00;;
7365;SDS011;3723;52.220;8.792;2023-09-18T13:05:20;7.13;;;0.90;;
7365;SDS011;3723;52.220;8.792;2023-09-18T13:08:03;6.80;;;0.70;;
7365;SDS011;3723;52.220;8.792;2023-09-18T13:10:50;9.40;;;1.00;;
7365;SDS011;3723;52.220;8.792;2023-09-18T13:13:28;8.37;;;1.00;;
7365;SDS011;3723;52.220;8.792;2023-09-18T13:15:58;7.30;;;0.90;;
7365;SDS011;3723;52.220;8.792;2023-09-18T13:18:31;8.17;;;1.00;;
7365;SDS011;3723;52.220;8.792;2023-09-18T13:20:58;6.50;;;0.70;;
7365;SDS011;3723;52.220;8.792;2023-09-18T13:23:29;10.17;;;1.60;;
7365;SDS011;3723;52.220;8.792;2023-09-18T13:26:07;14.67;;;0.97;;
7365;SDS011;3723;52.220;8.792;2023-09-18T13:28:36;7.20;;;1.10;;
7365;SDS011;3723;52.220;8.792;2023-09-18T13:31:09;7.77;;;1.43;;
7365;SDS011;3723;52.220;8.792;2023-09-18T13:33:39;7.47;;;0.90;;
7365;SDS011;3723;52.220;8.792;2023-09-18T13:36:09;7.20;;;0.80;;
7365;SDS011;3723;52.220;8.792;2023-09-18T13:38:36;8.60;;;1.07;;
7365;SDS011;3723;52.220;8.792;2023-09-18T13:41:10;7.93;;;0.80;;
7365;SDS011;3723;52.220;8.792;2023-09-18T13:43:38;8.03;;;1.00;;
7365;SDS011;3723;52.220;8.792;2023-09-18T13:46:07;9.80;;;1.10;;
7365;SDS011;3723;52.220;8.792;2023-09-18T13:48:51;6.90;;;0.90;;
7365;SDS011;3723;52.220;8.792;2023-09-18T13:51:30;11.60;;;2.00;;
7365;SDS011;3723;52.220;8.792;2023-09-18T13:54:20;6.30;;;0.70;;
7365;SDS011;3723;52.220;8.792;2023-09-18T13:57:09;11.27;;;0.93;;
7365;SDS011;3723;52.220;8.792;2023-09-18T14:00:24;7.40;;;0.90;;
7365;SDS011;3723;52.220;8.792;2023-09-18T14:16:09;9.20;;;1.13;;
7365;SDS011;3723;52.220;8.792;2023-09-18T14:28:31;8.30;;;0.87;;
7365;SDS011;3723;52.220;8.792;2023-09-18T14:31:05;7.03;;;0.77;;
7365;SDS011;3723;52.220;8.792;2023-09-18T14:37:02;10.53;;;1.17;;
7365;SDS011;3723;52.220;8.792;2023-09-18T14:42:44;14.97;;;1.83;;
7365;SDS011;3723;52.220;8.792;2023-09-18T14:45:47;8.87;;;1.00;;
7365;SDS011;3723;52.220;8.792;2023-09-18T14:48:13;13.83;;;1.43;;
7365;SDS011;3723;52.220;8.792;2023-09-18T14:50:56;48.20;;;5.93;;
7365;SDS011;3723;52.220;8.792;2023-09-18T14:53:43;12.17;;;2.00;;
7365;SDS011;3723;52.220;8.792;2023-09-18T14:56:31;8.00;;;1.20;;
7365;SDS011;3723;52.220;8.792;2023-09-18T14:59:19;11.67;;;1.80;;
7365;SDS011;3723;52.220;8.792;2023-09-18T15:01:46;12.37;;;1.60;;
7365;SDS011;3723;52.220;8.792;2023-09-18T15:04:14;12.70;;;1.00;;
7365;SDS011;3723;52.220;8.792;2023-09-18T15:06:40;9.93;;;1.30;;
7365;SDS011;3723;52.220;8.792;2023-09-18T15:09:07;9.30;;;1.77;;
7365;SDS011;3723;52.220;8.792;2023-09-18T15:11:34;11.43;;;1.70;;
7365;SDS011;3723;52.220;8.792;2023-09-18T15:14:01;8.50;;;1.17;;
7365;SDS011;3723;52.220;8.792;2023-09-18T15:16:30;10.60;;;1.67;;
7365;SDS011;3723;52.220;8.792;2023-09-18T15:18:57;19.43;;;5.07;;
7365;SDS011;3723;52.220;8.792;2023-09-18T15:21:27;8.73;;;1.10;;
7365;SDS011;3723;52.220;8.792;2023-09-18T15:23:54;9.23;;;1.53;;
7365;SDS011;3723;52.220;8.792;2023-09-18T15:26:22;7.93;;;0.80;;
7365;SDS011;3723;52.220;8.792;2023-09-18T15:28:49;7.43;;;1.03;;
7365;SDS011;3723;52.220;8.792;2023-09-18T15:31:16;8.10;;;1.13;;
7365;SDS011;3723;52.220;8.792;2023-09-18T15:33:45;8.23;;;1.23;;
7365;SDS011;3723;52.220;8.792;2023-09-18T15:36:13;8.57;;;1.00;;
7365;SDS011;3723;52.220;8.792;2023-09-18T15:38:43;7.10;;;0.90;;
7365;SDS011;3723;52.220;8.792;2023-09-18T15:41:14;7.10;;;0.80;;
7365;SDS011;3723;52.220;8.792;2023-09-18T15:43:51;10.00;;;1.30;;
7365;SDS011;3723;52.220;8.792;2023-09-18T15:46:29;7.43;;;0.80;;
7365;SDS011;3723;52.220;8.792;2023-09-18T15:49:05;7.67;;;0.90;;
7365;SDS011;3723;52.220;8.792;2023-09-18T15:51:33;6.93;;;1.00;;
7365;SDS011;3723;52.220;8.792;2023-09-18T15:54:00;7.30;;;0.77;;
7365;SDS011;3723;52.220;8.792;2023-09-18T15:56:29;6.70;;;0.80;;
7365;SDS011;3723;52.220;8.792;2023-09-18T15:58:58;8.67;;;1.10;;
7365;SDS011;3723;52.220;8.792;2023-09-18T16:01:25;7.43;;;0.70;;
7365;SDS011;3723;52.220;8.792;2023-09-18T16:03:52;8.20;;;0.70;;
7365;SDS011;3723;52.220;8.792;2023-09-18T16:06:23;7.50;;;0.80;;
7365;SDS011;3723;52.220;8.792;2023-09-18T16:08:51;8.77;;;1.00;;
7365;SDS011;3723;52.220;8.792;2023-09-18T16:11:21;6.40;;;0.80;;
7365;SDS011;3723;52.220;8.792;2023-09-18T16:13:48;8.10;;;1.00;;
7365;SDS011;3723;52.220;8.792;2023-09-18T16:16:18;7.57;;;1.20;;
7365;SDS011;3723;52.220;8.792;2023-09-18T16:18:45;7.40;;;0.70;;
7365;SDS011;3723;52.220;8.792;2023-09-18T16:21:13;10.80;;;1.00;;
7365;SDS011;3723;52.220;8.792;2023-09-18T16:23:41;8.83;;;0.90;;
7365;SDS011;3723;52.220;8.792;2023-09-18T16:26:08;8.37;;;1.50;;
7365;SDS011;3723;52.220;8.792;2023-09-18T16:28:35;7.80;;;0.97;;
7365;SDS011;3723;52.220;8.792;2023-09-18T16:31:02;7.40;;;0.80;;
7365;SDS011;3723;52.220;8.792;2023-09-18T16:33:32;7.03;;;0.80;;
7365;SDS011;3723;52.220;8.792;2023-09-18T16:35:59;6.67;;;0.87;;
7365;SDS011;3723;52.220;8.792;2023-09-18T16:38:26;7.60;;;1.07;;
7365;SDS011;3723;52.220;8.792;2023-09-18T16:40:54;6.90;;;0.80;;
7365;SDS011;3723;52.220;8.792;2023-09-18T16:43:21;7.53;;;0.93;;
7365;SDS011;3723;52.220;8.792;2023-09-18T16:45:48;8.20;;;0.87;;
7365;SDS011;3723;52.220;8.792;2023-09-18T16:48:15;8.60;;;1.10;;
7365;SDS011;3723;52.220;8.792;2023-09-18T16:50:41;8.00;;;1.50;;
7365;SDS011;3723;52.220;8.792;2023-09-18T16:53:08;7.40;;;1.00;;
7365;SDS011;3723;52.220;8.792;2023-09-18T16:55:35;11.17;;;1.30;;
7365;SDS011;3723;52.220;8.792;2023-09-18T16:58:03;7.57;;;1.17;;
7365;SDS011;3723;52.220;8.792;2023-09-18T17:00:30;8.33;;;1.10;;
7365;SDS011;3723;52.220;8.792;2023-09-18T17:02:57;9.37;;;1.40;;
7365;SDS011;3723;52.220;8.792;2023-09-18T17:05:24;8.43;;;1.30;;
7365;SDS011;3723;52.220;8.792;2023-09-18T17:07:51;8.87;;;1.10;;
7365;SDS011;3723;52.220;8.792;2023-09-18T17:10:18;11.30;;;1.10;;
7365;SDS011;3723;52.220;8.792;2023-09-18T17:12:45;8.37;;;1.00;;
7365;SDS011;3723;52.220;8.792;2023-09-18T17:15:13;7.50;;;0.90;;
7365;SDS011;3723;52.220;8.792;2023-09-18T17:17:41;8.63;;;1.00;;
7365;SDS011;3723;52.220;8.792;2023-09-18T17:20:08;7.70;;;1.10;;
7365;SDS011;3723;52.220;8.792;2023-09-18T17:22:35;7.57;;;1.10;;
7365;SDS011;3723;52.220;8.792;2023-09-18T17:25:02;6.90;;;1.10;;
7365;SDS011;3723;52.220;8.792;2023-09-18T17:27:30;10.30;;;2.03;;
7365;SDS011;3723;52.220;8.792;2023-09-18T17:29:58;9.00;;;1.10;;
7365;SDS011;3723;52.220;8.792;2023-09-18T17:32:28;9.70;;;1.43;;
7365;SDS011;3723;52.220;8.792;2023-09-18T17:34:55;7.50;;;1.20;;
7365;SDS011;3723;52.220;8.792;2023-09-18T17:37:23;7.33;;;0.97;;
7365;SDS011;3723;52.220;8.792;2023-09-18T17:39:51;7.10;;;1.03;;
7365;SDS011;3723;52.220;8.792;2023-09-18T17:42:18;7.73;;;1.00;;
7365;SDS011;3723;52.220;8.792;2023-09-18T17:44:45;7.80;;;1.00;;
7365;SDS011;3723;52.220;8.792;2023-09-18T17:47:12;7.33;;;1.10;;
7365;SDS011;3723;52.220;8.792;2023-09-18T17:49:41;8.70;;;1.00;;
7365;SDS011;3723;52.220;8.792;2023-09-18T17:52:08;9.47;;;1.00;;
7365;SDS011;3723;52.220;8.792;2023-09-18T17:54:36;9.90;;;1.37;;
7365;SDS011;3723;52.220;8.792;2023-09-18T17:57:03;11.03;;;2.00;;
7365;SDS011;3723;52.220;8.792;2023-09-18T17:59:31;7.80;;;1.10;;
7365;SDS011;3723;52.220;8.792;2023-09-18T18:01:58;11.00;;;1.20;;
7365;SDS011;3723;52.220;8.792;2023-09-18T18:04:25;6.60;;;1.00;;
7365;SDS011;3723;52.220;8.792;2023-09-18T18:06:53;6.97;;;1.00;;
7365;SDS011;3723;52.220;8.792;2023-09-18T18:09:20;8.00;;;1.10;;
7365;SDS011;3723;52.220;8.792;2023-09-18T18:11:48;7.47;;;1.33;;
7365;SDS011;3723;52.220;8.792;2023-09-18T18:14:15;11.23;;;1.47;;
7365;SDS011;3723;52.220;8.792;2023-09-18T18:16:43;8.90;;;0.90;;
7365;SDS011;3723;52.220;8.792;2023-09-18T18:19:15;7.90;;;1.07;;
7365;SDS011;3723;52.220;8.792;2023-09-18T18:21:42;8.90;;;1.13;;
7365;SDS011;3723;52.220;8.792;2023-09-18T18:24:10;7.43;;;1.13;;
7365;SDS011;3723;52.220;8.792;2023-09-18T18:26:39;7.03;;;1.30;;
7365;SDS011;3723;52.220;8.792;2023-09-18T18:29:06;7.70;;;1.30;;
7365;SDS011;3723;52.220;8.792;2023-09-18T18:31:33;7.40;;;1.30;;
7365;SDS011;3723;52.220;8.792;2023-09-18T18:34:00;12.80;;;2.37;;
7365;SDS011;3723;52.220;8.792;2023-09-18T18:36:29;7.60;;;1.33;;
7365;SDS011;3723;52.220;8.792;2023-09-18T18:38:56;7.63;;;1.10;;
7365;SDS011;3723;52.220;8.792;2023-09-18T18:41:25;7.10;;;1.00;;
7365;SDS011;3723;52.220;8.792;2023-09-18T18:43:53;9.73;;;0.90;;
7365;SDS011;3723;52.220;8.792;2023-09-18T18:46:21;9.67;;;1.83;;
7365;SDS011;3723;52.220;8.792;2023-09-18T18:48:49;7.13;;;1.20;;
7365;SDS011;3723;52.220;8.792;2023-09-18T18:51:16;8.27;;;1.03;;
7365;SDS011;3723;52.220;8.792;2023-09-18T18:53:45;8.07;;;1.00;;
7365;SDS011;3723;52.220;8.792;2023-09-18T18:56:14;7.63;;;1.10;;
7365;SDS011;3723;52.220;8.792;2023-09-18T18:58:43;16.37;;;2.20;;
7365;SDS011;3723;52.220;8.792;2023-09-18T19:01:13;9.77;;;1.40;;
7365;SDS011;3723;52.220;8.792;2023-09-18T19:03:41;7.83;;;2.00;;
7365;SDS011;3723;52.220;8.792;2023-09-18T19:06:08;10.60;;;1.63;;
7365;SDS011;3723;52.220;8.792;2023-09-18T19:08:36;10.63;;;1.30;;
7365;SDS011;3723;52.220;8.792;2023-09-18T19:11:04;10.27;;;1.17;;
7365;SDS011;3723;52.220;8.792;2023-09-18T19:13:33;7.53;;;1.20;;
7365;SDS011;3723;52.220;8.792;2023-09-18T19:16:02;7.10;;;0.90;;
7365;SDS011;3723;52.220;8.792;2023-09-18T19:18:29;7.17;;;0.90;;
7365;SDS011;3723;52.220;8.792;2023-09-18T19:20:56;7.10;;;1.00;;
7365;SDS011;3723;52.220;8.792;2023-09-18T19:23:23;10.40;;;0.90;;
7365;SDS011;3723;52.220;8.792;2023-09-18T19:25:51;6.90;;;0.77;;
7365;SDS011;3723;52.220;8.792;2023-09-18T19:28:21;6.60;;;0.70;;
7365;SDS011;3723;52.220;8.792;2023-09-18T19:30:55;6.53;;;0.70;;
7365;SDS011;3723;52.220;8.792;2023-09-18T19:33:26;7.60;;;1.00;;
7365;SDS011;3723;52.220;8.792;2023-09-18T19:35:53;6.20;;;0.70;;
7365;SDS011;3723;52.220;8.792;2023-09-18T19:38:26;7.77;;;0.70;;